Ana Sayfa
METAR-TAF:

METAR-TAF

Havaalanları :

Wales, Alaska, Amerika Birleşik Devletleri

Enlem: 65-37-21N, Boylam: 168-05-42W, yükseklik: 7 m

Güncel hava durumu gözlemi

Rapor saat 14:56 UTC de 50 dakika önce yapıldı.
Rüzgar güneydan 20 kt ve 24 kt'a kadar ani rüzgarlar
Sıcaklık -5°C
Nem 93%
Basınç 1017 hPa
Görüş mesafesi: 9.7 km
600 ft yükseklikte çok bulutlu
hafif kar, Pus

METAR: PAIW 021456Z AUTO 17020G24KT 6SM -SN BR OVC006 M05/M06 A3002 RMK AO2 PK WND 19026/1438 SLP167 P0000 60000 T10501056 51003 FZRANO

Saat: 07:46 (15:46 UTC)


TAF: eksik

4.000'den fazla havaalanı için hava durumu gözlemleri ve tahminleri (METAR ve TAF raporları).

Kullanılabilir istasyonlar harita üzerinde sarı ve kırmızı noktalarla gösterilir.

İstasyonun adını görmek için fareyi noktanın üzerinde gezdirin.

Sonrasında hava gözlem ve tahminlerini görmek için tıklayın.

Haritayı değiştirmek için: yaklaştırmak için siyah artı işaretli yeşil düğmeye ve uzaklaştırmak için de eksi işaretli düğmeye hızla tıklayın; bitişik haritalar için yeşil okları kullanın.


METAR-TAF: